Aldebaran Primo — IR9903 — position and weather

sailwx.info

Track history (hours):
 
Tides and Currents Weather Stations Pressure Air Temp Water Temp Dewpoint Dewpoint Depression Visibility Wind Speed Wind Dir Waves Ship Positions

Aldebaran Primo

Last reported at 2017-Oct-13 11:19 UTC. Time now 2017-Oct-17 16:55 UTC.
Position N 44°19' E 009°14'.

Length 42 m; draft 3 m.

Type: Pleasure craft. MMSI: 247066600.

Date/timePositionNaut miles runAvg speedWind from/ knotsBaromVisibWave heightAir tempDewpointWater temp
2017-Oct-13 11:19N 44°19' E 009°14'411.8
2017-Oct-13 11:00N 44°15' E 009°13'612.2
2017-Oct-13 10:30N 44°09' E 009°10'612.1
2017-Oct-13 10:00N 44°04' E 009°06'612.0
2017-Oct-13 09:30N 43°58' E 009°03'611.4
2017-Oct-13 09:00N 43°53' E 008°59'611.9
2017-Oct-13 08:30N 43°48' E 008°56'611.9
2017-Oct-13 08:00N 43°43' E 008°52'611.7
2017-Oct-13 07:30N 43°37' E 008°49'611.6
2017-Oct-13 07:00N 43°32' E 008°46'  
2017-Oct-09 08:41N 38°51' E 001°26'210.6
2017-Oct-09 08:30N 38°53' E 001°26'1 2.5
2017-Oct-09 07:58N 38°54' E 001°26'0 0.0
2017-Oct-09 07:30N 38°54' E 001°26'0 0.0
2017-Oct-09 06:59N 38°54' E 001°26'0 0.0
2017-Oct-09 06:30N 38°54' E 001°26'0 0.0
2017-Oct-09 06:00N 38°54' E 001°26'0 0.0
2017-Oct-09 05:29N 38°54' E 001°26'0 0.0
2017-Oct-09 05:00N 38°54' E 001°26'0 0.0
2017-Oct-09 04:29N 38°54' E 001°26'0 0.0
2017-Oct-09 03:58N 38°54' E 001°26'0 0.0
2017-Oct-09 03:28N 38°54' E 001°26'0 0.0
2017-Oct-09 02:59N 38°54' E 001°26'0 0.0
2017-Oct-09 02:29N 38°54' E 001°26'0 0.0
2017-Oct-09 01:59N 38°54' E 001°26'0 0.0
2017-Oct-09 01:29N 38°54' E 001°26'0 0.0
2017-Oct-09 00:58N 38°54' E 001°26'0 0.0
2017-Oct-09 00:30N 38°54' E 001°26'0 0.0
2017-Oct-08 23:59N 38°54' E 001°26'0 0.0
2017-Oct-08 23:28N 38°54' E 001°26'0 0.0
2017-Oct-08 23:00N 38°54' E 001°26'0 0.0
2017-Oct-08 22:30N 38°54' E 001°26'0 0.0
2017-Oct-08 22:00N 38°54' E 001°26'0 0.0
2017-Oct-08 21:29N 38°54' E 001°26'0 0.0
2017-Oct-08 20:59N 38°54' E 001°26'0 0.0
2017-Oct-08 20:29N 38°54' E 001°26'0 0.0
2017-Oct-08 20:00N 38°54' E 001°26'1 2.2
2017-Oct-08 19:30N 38°53' E 001°26'5 0.1
2017-Oct-07 08:31N 38°50' E 001°21'310.8
2017-Oct-07 08:12N 38°49' E 001°25'2 9.9
2017-Oct-07 07:59N 38°51' E 001°26'3 6.4
2017-Oct-07 07:29N 38°54' E 001°26'0 0.1
2017-Oct-07 06:59N 38°54' E 001°26'0 0.0
2017-Oct-07 06:29N 38°54' E 001°26'0 0.1
2017-Oct-07 05:59N 38°54' E 001°26'0 0.0
2017-Oct-07 05:30N 38°54' E 001°26'0 0.0
2017-Oct-07 04:59N 38°54' E 001°26'0 0.1
2017-Oct-07 04:30N 38°54' E 001°26'0 0.1
2017-Oct-07 04:00N 38°54' E 001°26'0 0.0
2017-Oct-07 03:06N 38°54' E 001°26'0 0.1
2017-Oct-07 03:00N 38°54' E 001°26'0 0.0
2017-Oct-07 02:28N 38°54' E 001°26'0 0.0
2017-Oct-07 01:59N 38°54' E 001°26'0 0.0
2017-Oct-07 01:30N 38°54' E 001°26'0 0.0
2017-Oct-07 00:59N 38°54' E 001°26'0 0.0
2017-Oct-07 00:28N 38°54' E 001°26'0 0.0
2017-Oct-06 23:59N 38°54' E 001°26'0 0.0
2017-Oct-06 23:27N 38°54' E 001°26'0 0.0
2017-Oct-06 22:58N 38°54' E 001°26'0 0.0
2017-Oct-06 22:27N 38°54' E 001°26'0 0.0
2017-Oct-06 21:59N 38°54' E 001°26'0 0.0
2017-Oct-06 21:29N 38°54' E 001°26'0 0.0
2017-Oct-06 20:59N 38°54' E 001°26'0 0.0
2017-Oct-06 20:30N 38°54' E 001°26'0 0.0
2017-Oct-06 19:59N 38°54' E 001°26'0 0.0
2017-Oct-06 19:30N 38°54' E 001°26'0 0.1
2017-Oct-06 19:00N 38°54' E 001°26'0 0.0
2017-Oct-06 18:30N 38°54' E 001°26'0 0.0
2017-Oct-06 18:00N 38°54' E 001°26'0 0.0
2017-Oct-06 17:29N 38°54' E 001°26'0 0.0
2017-Oct-06 16:57N 38°54' E 001°26'0 0.0
2017-Oct-06 16:29N 38°54' E 001°26'0 0.0
2017-Oct-06 16:00N 38°54' E 001°26'0 0.0
2017-Oct-06 15:30N 38°54' E 001°26'0 0.0
2017-Oct-06 14:59N 38°54' E 001°26'0 0.0
2017-Oct-06 14:28N 38°54' E 001°26'0 0.1
2017-Oct-06 14:00N 38°54' E 001°26'0 0.0
2017-Oct-06 13:28N 38°54' E 001°26'0 0.0
2017-Oct-06 13:00N 38°54' E 001°26'0 0.0
2017-Oct-06 12:27N 38°54' E 001°26'0 0.0
2017-Oct-06 11:59N 38°54' E 001°26'0 0.0
2017-Oct-06 11:29N 38°54' E 001°26'0 0.0
2017-Oct-06 11:00N 38°54' E 001°26'0 0.1
2017-Oct-06 10:30N 38°54' E 001°26'0 0.0
2017-Oct-06 09:58N 38°54' E 001°26'0 0.1
2017-Oct-06 09:27N 38°54' E 001°26'0 0.0
2017-Oct-06 08:59N 38°54' E 001°26'0 0.0
2017-Oct-06 08:30N 38°54' E 001°26'0 0.0
2017-Oct-06 08:00N 38°54' E 001°26'0 0.0
2017-Oct-05 23:27N 38°54' E 001°26'0 0.0
2017-Oct-05 22:58N 38°54' E 001°26'0 0.0
2017-Oct-05 22:29N 38°54' E 001°26'0 0.0
2017-Oct-05 21:57N 38°54' E 001°26'0 0.0
2017-Oct-05 21:30N 38°54' E 001°26'0 0.0
2017-Oct-05 20:59N 38°54' E 001°26'0 0.0
2017-Oct-05 20:29N 38°54' E 001°26'0 0.0
2017-Oct-05 19:58N 38°54' E 001°26'0 0.0
2017-Oct-05 19:27N 38°54' E 001°26'0 0.0
2017-Oct-05 18:59N 38°54' E 001°26'0 0.0
2017-Oct-05 18:30N 38°54' E 001°26'0 0.0
2017-Oct-05 18:00N 38°54' E 001°26'0 0.0
2017-Oct-05 17:30N 38°54' E 001°26'0 0.0
2017-Oct-05 16:58N 38°54' E 001°26'0 0.0
2017-Oct-05 15:29N 38°54' E 001°26'0 0.0
2017-Oct-05 14:58N 38°54' E 001°26'0 0.0
2017-Oct-05 14:29N 38°54' E 001°26'0 0.0
2017-Oct-05 13:59N 38°54' E 001°26'0 0.0
2017-Oct-05 13:28N 38°54' E 001°26'0 0.0
2017-Oct-05 13:01N 38°54' E 001°26'0 0.0
2017-Oct-05 12:29N 38°54' E 001°26'0 0.0
2017-Oct-05 12:00N 38°54' E 001°26'0 0.0
2017-Oct-05 11:29N 38°54' E 001°26'0 0.0
2017-Oct-05 11:00N 38°54' E 001°26'0 0.0
2017-Oct-05 10:27N 38°54' E 001°26'0 0.0
2017-Oct-05 10:00N 38°54' E 001°26'0 0.0
2017-Oct-05 09:30N 38°54' E 001°26'0 0.0
2017-Oct-05 08:56N 38°54' E 001°26'0 0.0
2017-Oct-05 08:29N 38°54' E 001°26'0 0.0
2017-Oct-05 08:00N 38°54' E 001°26'0 0.0
2017-Oct-05 07:30N 38°54' E 001°26'0 0.0
2017-Oct-05 06:59N 38°54' E 001°26'0 0.0
2017-Oct-05 06:30N 38°54' E 001°26'0 0.0
2017-Oct-05 05:59N 38°54' E 001°26'0 0.0
2017-Oct-05 05:28N 38°54' E 001°26'0 0.0
2017-Oct-05 05:00N 38°54' E 001°26'0 0.0
2017-Oct-05 04:30N 38°54' E 001°26'0 0.0
2017-Oct-05 03:59N 38°54' E 001°26'0 0.0
2017-Oct-05 03:30N 38°54' E 001°26'0 0.0
2017-Oct-05 03:01N 38°54' E 001°26'0 0.0
2017-Oct-05 02:30N 38°54' E 001°26'0 0.0
2017-Oct-05 01:59N 38°54' E 001°26'0 0.0
2017-Oct-05 01:30N 38°54' E 001°26'0 0.0
2017-Oct-05 00:59N 38°54' E 001°26'0 0.0
2017-Oct-05 00:29N 38°54' E 001°26'0 0.0
2017-Oct-05 00:00N 38°54' E 001°26'0 0.0
2017-Oct-04 23:30N 38°54' E 001°26'0 0.0
2017-Oct-04 23:00N 38°54' E 001°26'0 0.0
2017-Oct-04 22:30N 38°54' E 001°26'0 0.0
2017-Oct-04 22:00N 38°54' E 001°26'0 0.0
2017-Oct-04 21:29N 38°54' E 001°26'0 0.0
2017-Oct-04 21:00N 38°54' E 001°26'0 0.0
2017-Oct-04 20:30N 38°54' E 001°26'0 0.0
2017-Oct-04 19:59N 38°54' E 001°26'0 0.0
2017-Oct-04 19:30N 38°54' E 001°26'0 0.0
2017-Oct-04 19:00N 38°54' E 001°26'0 0.0
2017-Oct-04 18:30N 38°54' E 001°26'0 0.0
2017-Oct-04 18:00N 38°54' E 001°26'0 0.0
2017-Oct-04 17:30N 38°54' E 001°26'0 0.0
2017-Oct-04 16:59N 38°54' E 001°26'0 0.0
2017-Oct-04 16:29N 38°54' E 001°26'0 0.0
2017-Oct-04 15:59N 38°54' E 001°26'0 0.0
2017-Oct-04 15:30N 38°54' E 001°26'0 0.0
2017-Oct-04 15:00N 38°54' E 001°26'0 0.0
2017-Oct-04 14:29N 38°54' E 001°26'0 0.0
2017-Oct-04 13:59N 38°54' E 001°26'0 0.0
2017-Oct-04 13:29N 38°54' E 001°26'0 0.0
2017-Oct-04 13:00N 38°54' E 001°26'0 0.0
2017-Oct-04 12:30N 38°54' E 001°26'0 0.0
2017-Oct-04 12:00N 38°54' E 001°26'0 0.0
2017-Oct-04 11:27N 38°54' E 001°26'0 0.0
2017-Oct-04 11:00N 38°54' E 001°26'0 0.0
2017-Oct-04 10:29N 38°54' E 001°26'0 0.0
2017-Oct-04 09:59N 38°54' E 001°26'0 0.0
2017-Oct-04 09:30N 38°54' E 001°26'0 0.0
2017-Oct-04 08:59N 38°54' E 001°26'0 0.0
2017-Oct-04 08:25N 38°54' E 001°26'0 0.1
2017-Oct-04 08:00N 38°54' E 001°26'0 0.0
2017-Oct-04 07:30N 38°54' E 001°26'0 0.0
2017-Oct-04 06:59N 38°54' E 001°26'0 0.0
2017-Oct-04 06:30N 38°54' E 001°26'0 0.0
2017-Oct-04 05:59N 38°54' E 001°26'0 0.0
2017-Oct-04 05:28N 38°54' E 001°26'0 0.0
2017-Oct-04 05:00N 38°54' E 001°26'0 0.0
2017-Oct-04 04:30N 38°54' E 001°26'0 0.0
2017-Oct-04 03:59N 38°54' E 001°26'0 0.0
2017-Oct-04 03:30N 38°54' E 001°26'0 0.0
2017-Oct-04 03:00N 38°54' E 001°26'0 0.0
2017-Oct-04 02:30N 38°54' E 001°26'0 0.0
2017-Oct-04 01:59N 38°54' E 001°26'0 0.0
2017-Oct-04 01:30N 38°54' E 001°26'0 0.0
2017-Oct-04 00:59N 38°54' E 001°26'0 0.0
2017-Oct-04 00:29N 38°54' E 001°26'0 0.0
2017-Oct-03 23:58N 38°54' E 001°26'0 0.0
2017-Oct-03 23:29N 38°54' E 001°26'0 0.0
2017-Oct-03 23:00N 38°54' E 001°26'0 0.0
2017-Oct-03 22:28N 38°54' E 001°26'0 0.0
2017-Oct-03 21:59N 38°54' E 001°26'0 0.0
2017-Oct-03 21:29N 38°54' E 001°26'0 0.0
2017-Oct-03 21:00N 38°54' E 001°26'0 0.0
2017-Oct-03 20:30N 38°54' E 001°26'0 0.0
2017-Oct-03 19:58N 38°54' E 001°26'0 0.0
2017-Oct-03 19:29N 38°54' E 001°26'0 0.0
2017-Oct-03 19:00N 38°54' E 001°26'0 0.0
2017-Oct-03 18:28N 38°54' E 001°26'0 0.0
2017-Oct-03 18:00N 38°54' E 001°26'0 0.0
2017-Oct-03 17:28N 38°54' E 001°26'0 0.0
2017-Oct-03 16:59N 38°54' E 001°26'0 0.0
2017-Oct-03 16:29N 38°54' E 001°26'0 0.0
2017-Oct-03 15:58N 38°54' E 001°26'0 0.0
2017-Oct-03 15:29N 38°54' E 001°26'0 0.0
2017-Oct-03 15:00N 38°54' E 001°26'0 0.0
2017-Oct-03 14:00N 38°54' E 001°26'0 0.0
2017-Oct-03 13:28N 38°54' E 001°26'0 0.0
2017-Oct-03 13:00N 38°54' E 001°26'0 0.0
2017-Oct-03 12:30N 38°54' E 001°26'0 0.0
2017-Oct-03 11:59N 38°54' E 001°26'0 0.0
2017-Oct-03 11:30N 38°54' E 001°26'  
Track history (hours):
 
Tides and Currents Weather Stations Pressure Air Temp Water Temp Dewpoint Dewpoint Depression Visibility Wind Speed Wind Dir Waves Ship Positions

Aldebaran Primo

Last reported at 2017-Oct-13 11:19 UTC. Time now 2017-Oct-17 16:55 UTC.
Position N 44°19' E 009°14'.

Length 42 m; draft 3 m.

Type: Pleasure craft. MMSI: 247066600.

Date/timePositionNaut miles runAvg speedWind from/ knotsBaromVisibWave heightAir tempDewpointWater temp
2017-Oct-13 11:19N 44°19' E 009°14'411.8
2017-Oct-13 11:00N 44°15' E 009°13'612.2
2017-Oct-13 10:30N 44°09' E 009°10'612.1
2017-Oct-13 10:00N 44°04' E 009°06'612.0
2017-Oct-13 09:30N 43°58' E 009°03'611.4
2017-Oct-13 09:00N 43°53' E 008°59'611.9
2017-Oct-13 08:30N 43°48' E 008°56'611.9
2017-Oct-13 08:00N 43°43' E 008°52'611.7
2017-Oct-13 07:30N 43°37' E 008°49'611.6
2017-Oct-13 07:00N 43°32' E 008°46'  
2017-Oct-09 08:41N 38°51' E 001°26'210.6
2017-Oct-09 08:30N 38°53' E 001°26'1 2.5
2017-Oct-09 07:58N 38°54' E 001°26'0 0.0
2017-Oct-09 07:30N 38°54' E 001°26'0 0.0
2017-Oct-09 06:59N 38°54' E 001°26'0 0.0
2017-Oct-09 06:30N 38°54' E 001°26'0 0.0
2017-Oct-09 06:00N 38°54' E 001°26'0 0.0
2017-Oct-09 05:29N 38°54' E 001°26'0 0.0
2017-Oct-09 05:00N 38°54' E 001°26'0 0.0
2017-Oct-09 04:29N 38°54' E 001°26'0 0.0
2017-Oct-09 03:58N 38°54' E 001°26'0 0.0
2017-Oct-09 03:28N 38°54' E 001°26'0 0.0
2017-Oct-09 02:59N 38°54' E 001°26'0 0.0
2017-Oct-09 02:29N 38°54' E 001°26'0 0.0
2017-Oct-09 01:59N 38°54' E 001°26'0 0.0
2017-Oct-09 01:29N 38°54' E 001°26'0 0.0
2017-Oct-09 00:58N 38°54' E 001°26'0 0.0
2017-Oct-09 00:30N 38°54' E 001°26'0 0.0
2017-Oct-08 23:59N 38°54' E 001°26'0 0.0
2017-Oct-08 23:28N 38°54' E 001°26'0 0.0
2017-Oct-08 23:00N 38°54' E 001°26'0 0.0
2017-Oct-08 22:30N 38°54' E 001°26'0 0.0
2017-Oct-08 22:00N 38°54' E 001°26'0 0.0
2017-Oct-08 21:29N 38°54' E 001°26'0 0.0
2017-Oct-08 20:59N 38°54' E 001°26'0 0.0
2017-Oct-08 20:29N 38°54' E 001°26'0 0.0
2017-Oct-08 20:00N 38°54' E 001°26'1 2.2
2017-Oct-08 19:30N 38°53' E 001°26'5 0.1
2017-Oct-07 08:31N 38°50' E 001°21'310.8
2017-Oct-07 08:12N 38°49' E 001°25'2 9.9
2017-Oct-07 07:59N 38°51' E 001°26'3 6.4
2017-Oct-07 07:29N 38°54' E 001°26'0 0.1
2017-Oct-07 06:59N 38°54' E 001°26'0 0.0
2017-Oct-07 06:29N 38°54' E 001°26'0 0.1
2017-Oct-07 05:59N 38°54' E 001°26'0 0.0
2017-Oct-07 05:30N 38°54' E 001°26'0 0.0
2017-Oct-07 04:59N 38°54' E 001°26'0 0.1
2017-Oct-07 04:30N 38°54' E 001°26'0 0.1
2017-Oct-07 04:00N 38°54' E 001°26'0 0.0
2017-Oct-07 03:06N 38°54' E 001°26'0 0.1
2017-Oct-07 03:00N 38°54' E 001°26'0 0.0
2017-Oct-07 02:28N 38°54' E 001°26'0 0.0
2017-Oct-07 01:59N 38°54' E 001°26'0 0.0
2017-Oct-07 01:30N 38°54' E 001°26'0 0.0
2017-Oct-07 00:59N 38°54' E 001°26'0 0.0
2017-Oct-07 00:28N 38°54' E 001°26'0 0.0
2017-Oct-06 23:59N 38°54' E 001°26'0 0.0
2017-Oct-06 23:27N 38°54' E 001°26'0 0.0
2017-Oct-06 22:58N 38°54' E 001°26'0 0.0
2017-Oct-06 22:27N 38°54' E 001°26'0 0.0
2017-Oct-06 21:59N 38°54' E 001°26'0 0.0
2017-Oct-06 21:29N 38°54' E 001°26'0 0.0
2017-Oct-06 20:59N 38°54' E 001°26'0 0.0
2017-Oct-06 20:30N 38°54' E 001°26'0 0.0
2017-Oct-06 19:59N 38°54' E 001°26'0 0.0
2017-Oct-06 19:30N 38°54' E 001°26'0 0.1
2017-Oct-06 19:00N 38°54' E 001°26'0 0.0
2017-Oct-06 18:30N 38°54' E 001°26'0 0.0
2017-Oct-06 18:00N 38°54' E 001°26'0 0.0
2017-Oct-06 17:29N 38°54' E 001°26'0 0.0
2017-Oct-06 16:57N 38°54' E 001°26'0 0.0
2017-Oct-06 16:29N 38°54' E 001°26'0 0.0
2017-Oct-06 16:00N 38°54' E 001°26'0 0.0
2017-Oct-06 15:30N 38°54' E 001°26'0 0.0
2017-Oct-06 14:59N 38°54' E 001°26'0 0.0
2017-Oct-06 14:28N 38°54' E 001°26'0 0.1
2017-Oct-06 14:00N 38°54' E 001°26'0 0.0
2017-Oct-06 13:28N 38°54' E 001°26'0 0.0
2017-Oct-06 13:00N 38°54' E 001°26'0 0.0
2017-Oct-06 12:27N 38°54' E 001°26'0 0.0
2017-Oct-06 11:59N 38°54' E 001°26'0 0.0
2017-Oct-06 11:29N 38°54' E 001°26'0 0.0
2017-Oct-06 11:00N 38°54' E 001°26'0 0.1
2017-Oct-06 10:30N 38°54' E 001°26'0 0.0
2017-Oct-06 09:58N 38°54' E 001°26'0 0.1
2017-Oct-06 09:27N 38°54' E 001°26'0 0.0
2017-Oct-06 08:59N 38°54' E 001°26'0 0.0
2017-Oct-06 08:30N 38°54' E 001°26'0 0.0
2017-Oct-06 08:00N 38°54' E 001°26'0 0.0
2017-Oct-05 23:27N 38°54' E 001°26'0 0.0
2017-Oct-05 22:58N 38°54' E 001°26'0 0.0
2017-Oct-05 22:29N 38°54' E 001°26'0 0.0
2017-Oct-05 21:57N 38°54' E 001°26'0 0.0
2017-Oct-05 21:30N 38°54' E 001°26'0 0.0
2017-Oct-05 20:59N 38°54' E 001°26'0 0.0
2017-Oct-05 20:29N 38°54' E 001°26'0 0.0
2017-Oct-05 19:58N 38°54' E 001°26'0 0.0
2017-Oct-05 19:27N 38°54' E 001°26'0 0.0
2017-Oct-05 18:59N 38°54' E 001°26'0 0.0
2017-Oct-05 18:30N 38°54' E 001°26'0 0.0
2017-Oct-05 18:00N 38°54' E 001°26'0 0.0
2017-Oct-05 17:30N 38°54' E 001°26'0 0.0
2017-Oct-05 16:58N 38°54' E 001°26'0 0.0
2017-Oct-05 15:29N 38°54' E 001°26'0 0.0
2017-Oct-05 14:58N 38°54' E 001°26'0 0.0
2017-Oct-05 14:29N 38°54' E 001°26'0 0.0
2017-Oct-05 13:59N 38°54' E 001°26'0 0.0
2017-Oct-05 13:28N 38°54' E 001°26'0 0.0
2017-Oct-05 13:01N 38°54' E 001°26'0 0.0
2017-Oct-05 12:29N 38°54' E 001°26'0 0.0
2017-Oct-05 12:00N 38°54' E 001°26'0 0.0
2017-Oct-05 11:29N 38°54' E 001°26'0 0.0
2017-Oct-05 11:00N 38°54' E 001°26'0 0.0
2017-Oct-05 10:27N 38°54' E 001°26'0 0.0
2017-Oct-05 10:00N 38°54' E 001°26'0 0.0
2017-Oct-05 09:30N 38°54' E 001°26'0 0.0
2017-Oct-05 08:56N 38°54' E 001°26'0 0.0
2017-Oct-05 08:29N 38°54' E 001°26'0 0.0
2017-Oct-05 08:00N 38°54' E 001°26'0 0.0
2017-Oct-05 07:30N 38°54' E 001°26'0 0.0
2017-Oct-05 06:59N 38°54' E 001°26'0 0.0
2017-Oct-05 06:30N 38°54' E 001°26'0 0.0
2017-Oct-05 05:59N 38°54' E 001°26'0 0.0
2017-Oct-05 05:28N 38°54' E 001°26'0 0.0
2017-Oct-05 05:00N 38°54' E 001°26'0 0.0
2017-Oct-05 04:30N 38°54' E 001°26'0 0.0
2017-Oct-05 03:59N 38°54' E 001°26'0 0.0
2017-Oct-05 03:30N 38°54' E 001°26'0 0.0
2017-Oct-05 03:01N 38°54' E 001°26'0 0.0
2017-Oct-05 02:30N 38°54' E 001°26'0 0.0
2017-Oct-05 01:59N 38°54' E 001°26'0 0.0
2017-Oct-05 01:30N 38°54' E 001°26'0 0.0
2017-Oct-05 00:59N 38°54' E 001°26'0 0.0
2017-Oct-05 00:29N 38°54' E 001°26'0 0.0
2017-Oct-05 00:00N 38°54' E 001°26'0 0.0
2017-Oct-04 23:30N 38°54' E 001°26'0 0.0
2017-Oct-04 23:00N 38°54' E 001°26'0 0.0
2017-Oct-04 22:30N 38°54' E 001°26'0 0.0
2017-Oct-04 22:00N 38°54' E 001°26'0 0.0
2017-Oct-04 21:29N 38°54' E 001°26'0 0.0
2017-Oct-04 21:00N 38°54' E 001°26'0 0.0
2017-Oct-04 20:30N 38°54' E 001°26'0 0.0
2017-Oct-04 19:59N 38°54' E 001°26'0 0.0
2017-Oct-04 19:30N 38°54' E 001°26'0 0.0
2017-Oct-04 19:00N 38°54' E 001°26'0 0.0
2017-Oct-04 18:30N 38°54' E 001°26'0 0.0
2017-Oct-04 18:00N 38°54' E 001°26'0 0.0
2017-Oct-04 17:30N 38°54' E 001°26'0 0.0
2017-Oct-04 16:59N 38°54' E 001°26'0 0.0
2017-Oct-04 16:29N 38°54' E 001°26'0 0.0
2017-Oct-04 15:59N 38°54' E 001°26'0 0.0
2017-Oct-04 15:30N 38°54' E 001°26'0 0.0
2017-Oct-04 15:00N 38°54' E 001°26'0 0.0
2017-Oct-04 14:29N 38°54' E 001°26'0 0.0
2017-Oct-04 13:59N 38°54' E 001°26'0 0.0
2017-Oct-04 13:29N 38°54' E 001°26'0 0.0
2017-Oct-04 13:00N 38°54' E 001°26'0 0.0
2017-Oct-04 12:30N 38°54' E 001°26'0 0.0
2017-Oct-04 12:00N 38°54' E 001°26'0 0.0
2017-Oct-04 11:27N 38°54' E 001°26'0 0.0
2017-Oct-04 11:00N 38°54' E 001°26'0 0.0
2017-Oct-04 10:29N 38°54' E 001°26'0 0.0
2017-Oct-04 09:59N 38°54' E 001°26'0 0.0
2017-Oct-04 09:30N 38°54' E 001°26'0 0.0
2017-Oct-04 08:59N 38°54' E 001°26'0 0.0
2017-Oct-04 08:25N 38°54' E 001°26'0 0.1
2017-Oct-04 08:00N 38°54' E 001°26'0 0.0
2017-Oct-04 07:30N 38°54' E 001°26'0 0.0
2017-Oct-04 06:59N 38°54' E 001°26'0 0.0
2017-Oct-04 06:30N 38°54' E 001°26'0 0.0
2017-Oct-04 05:59N 38°54' E 001°26'0 0.0
2017-Oct-04 05:28N 38°54' E 001°26'0 0.0
2017-Oct-04 05:00N 38°54' E 001°26'0 0.0
2017-Oct-04 04:30N 38°54' E 001°26'0 0.0
2017-Oct-04 03:59N 38°54' E 001°26'0 0.0
2017-Oct-04 03:30N 38°54' E 001°26'0 0.0
2017-Oct-04 03:00N 38°54' E 001°26'0 0.0
2017-Oct-04 02:30N 38°54' E 001°26'0 0.0
2017-Oct-04 01:59N 38°54' E 001°26'0 0.0
2017-Oct-04 01:30N 38°54' E 001°26'0 0.0
2017-Oct-04 00:59N 38°54' E 001°26'0 0.0
2017-Oct-04 00:29N 38°54' E 001°26'0 0.0
2017-Oct-03 23:58N 38°54' E 001°26'0 0.0
2017-Oct-03 23:29N 38°54' E 001°26'0 0.0
2017-Oct-03 23:00N 38°54' E 001°26'0 0.0
2017-Oct-03 22:28N 38°54' E 001°26'0 0.0
2017-Oct-03 21:59N 38°54' E 001°26'0 0.0
2017-Oct-03 21:29N 38°54' E 001°26'0 0.0
2017-Oct-03 21:00N 38°54' E 001°26'0 0.0
2017-Oct-03 20:30N 38°54' E 001°26'0 0.0
2017-Oct-03 19:58N 38°54' E 001°26'0 0.0
2017-Oct-03 19:29N 38°54' E 001°26'0 0.0
2017-Oct-03 19:00N 38°54' E 001°26'0 0.0
2017-Oct-03 18:28N 38°54' E 001°26'0 0.0
2017-Oct-03 18:00N 38°54' E 001°26'0 0.0
2017-Oct-03 17:28N 38°54' E 001°26'0 0.0
2017-Oct-03 16:59N 38°54' E 001°26'0 0.0
2017-Oct-03 16:29N 38°54' E 001°26'0 0.0
2017-Oct-03 15:58N 38°54' E 001°26'0 0.0
2017-Oct-03 15:29N 38°54' E 001°26'0 0.0
2017-Oct-03 15:00N 38°54' E 001°26'0 0.0
2017-Oct-03 14:00N 38°54' E 001°26'0 0.0
2017-Oct-03 13:28N 38°54' E 001°26'0 0.0
2017-Oct-03 13:00N 38°54' E 001°26'0 0.0
2017-Oct-03 12:30N 38°54' E 001°26'0 0.0
2017-Oct-03 11:59N 38°54' E 001°26'0 0.0
2017-Oct-03 11:30N 38°54' E 001°26'  

Dump ship's entire track history